Time;durP1;ratioP1;P1;durP2;ratioP2;P2;SDS_P1;SDS_P2;PMS_P1;PMS_P2;Temp;Humidity;BMP_temperature;BMP_pressure;BME280_temperature;BME280_humidity;BME280_pressure;Samples;Min_cycle;Max_cycle;Signal;HPM_P1;HPM_P2
2021/12/18 00:02:25;;;;;;;0.28;0.15;;;;;;;;;;5033464;28;20549;-77
2021/12/18 00:04:54;;;;;;;0.05;0.05;;;;;;;;;;5032002;28;20064;-77
2021/12/18 00:07:22;;;;;;;1.88;0.40;;;;;;;;;;5038284;28;20021;-77
2021/12/18 00:09:51;;;;;;;0.60;0.60;;;;;;;;;;5036263;28;20030;-76
2021/12/18 00:12:17;;;;;;;0.10;0.10;;;;;;;;;;5034143;28;20040;-76
2021/12/18 00:14:43;;;;;;;0.10;0.10;;;;;;;;;;5046172;28;20033;-76
2021/12/18 00:17:09;;;;;;;0.43;0.43;;;;;;;;;;5040846;28;20049;-76
2021/12/18 00:19:36;;;;;;;0.10;0.10;;;;;;;;;;5038280;28;20132;-76
2021/12/18 00:22:02;;;;;;;0.00;0.00;;;;;;;;;;5048418;28;20029;-76
2021/12/18 00:24:28;;;;;;;0.45;0.30;;;;;;;;;;5043117;28;20448;-76
2021/12/18 00:26:54;;;;;;;0.10;0.10;;;;;;;;;;5043975;28;20128;-76
2021/12/18 00:29:20;;;;;;;0.30;0.30;;;;;;;;;;5043658;28;20017;-76
2021/12/18 00:31:46;;;;;;;0.13;0.13;;;;;;;;;;5034070;28;20032;-76
2021/12/18 00:34:12;;;;;;;0.20;0.20;;;;;;;;;;5042461;28;20079;-76
2021/12/18 00:36:38;;;;;;;0.40;0.40;;;;;;;;;;5040780;28;20029;-76
2021/12/18 00:39:04;;;;;;;1.35;0.60;;;;;;;;;;5033274;28;20049;-76
2021/12/18 00:44:02;;;;;;;0.10;0.10;;;;;;;;;;5034638;28;20026;-77
2021/12/18 00:46:30;;;;;;;0.17;0.17;;;;;;;;;;5041299;28;20720;-76
2021/12/18 00:48:56;;;;;;;0.10;0.10;;;;;;;;;;5043436;28;20443;-76
2021/12/18 00:51:22;;;;;;;0.17;0.17;;;;;;;;;;5038161;28;20052;-76
2021/12/18 00:53:48;;;;;;;2.47;1.83;;;;;;;;;;5034263;28;20037;-76
2021/12/18 00:56:14;;;;;;;0.08;0.08;;;;;;;;;;5042234;28;20029;-76
2021/12/18 00:58:40;;;;;;;0.50;0.50;;;;;;;;;;5033533;28;20057;-76
2021/12/18 01:01:09;;;;;;;0.00;0.00;;;;;;;;;;5034762;28;20095;-76
2021/12/18 01:03:36;;;;;;;0.30;0.30;;;;;;;;;;5039819;28;20029;-76
2021/12/18 01:06:02;;;;;;;1.05;0.47;;;;;;;;;;5042248;28;20044;-76
2021/12/18 01:08:28;;;;;;;0.85;0.65;;;;;;;;;;5043277;28;20518;-76
2021/12/18 01:11:20;;;;;;;0.13;0.13;;;;;;;;;;5037444;28;20399;-76
2021/12/18 01:14:00;;;;;;;0.20;0.20;;;;;;;;;;5030629;28;20042;-76
2021/12/18 01:16:36;;;;;;;0.10;0.10;;;;;;;;;;5047471;28;20148;-76
2021/12/18 01:24:30;;;;;;;0.10;0.10;;;;;;;;;;5038319;28;20104;-77
2021/12/18 01:26:56;;;;;;;0.10;0.10;;;;;;;;;;5036035;28;20068;-77
2021/12/18 01:29:22;;;;;;;7.20;1.40;;;;;;;;;;5036541;28;20088;-77
2021/12/18 01:31:48;;;;;;;0.00;0.00;;;;;;;;;;5034985;28;20027;-76
2021/12/18 01:34:14;;;;;;;0.28;0.28;;;;;;;;;;5031657;28;20057;-76
2021/12/18 01:36:40;;;;;;;0.00;0.00;;;;;;;;;;5039362;28;20056;-76
2021/12/18 01:39:06;;;;;;;1.58;0.70;;;;;;;;;;5033342;28;20034;-76
2021/12/18 01:41:42;;;;;;;0.00;0.00;;;;;;;;;;5030707;28;20454;-76
2021/12/18 01:51:12;;;;;;;0.57;0.57;;;;;;;;;;5027835;28;20038;-76
2021/12/18 01:52:33;;;;;;;0.45;0.45;;;;;;;;;;5031869;28;20032;-76
2021/12/18 01:54:59;;;;;;;1.23;1.13;;;;;;;;;;5030512;28;20025;-76
2021/12/18 01:57:25;;;;;;;0.10;0.10;;;;;;;;;;5037804;28;20495;-76
2021/12/18 01:59:51;;;;;;;0.00;0.00;;;;;;;;;;5032521;28;20034;-76
2021/12/18 02:02:18;;;;;;;1.25;0.70;;;;;;;;;;5033345;28;20040;-76
2021/12/18 02:04:44;;;;;;;0.10;0.10;;;;;;;;;;5030712;28;20021;-76
2021/12/18 02:07:10;;;;;;;0.17;0.17;;;;;;;;;;5040644;28;20029;-76
2021/12/18 02:09:56;;;;;;;0.05;0.05;;;;;;;;;;5040679;28;20106;-76
2021/12/18 02:12:29;;;;;;;0.05;0.05;;;;;;;;;;5037950;28;20041;-76
2021/12/18 02:22:51;;;;;;;1.08;0.47;;;;;;;;;;5034295;28;20030;-76
2021/12/18 02:25:17;;;;;;;6.55;0.75;;;;;;;;;;5035135;28;20049;-76
2021/12/18 02:27:43;;;;;;;0.00;0.00;;;;;;;;;;5044702;28;20805;-76
2021/12/18 02:30:11;;;;;;;0.20;0.20;;;;;;;;;;5045047;28;20036;-76
2021/12/18 02:32:37;;;;;;;0.00;0.00;;;;;;;;;;5032761;28;20037;-76
2021/12/18 02:35:05;;;;;;;0.00;0.00;;;;;;;;;;5042593;28;20040;-76
2021/12/18 02:37:38;;;;;;;0.00;0.00;;;;;;;;;;5034818;28;20033;-76
2021/12/18 02:42:34;;;;;;;0.10;0.10;;;;;;;;;;5045837;28;20368;-76
2021/12/18 02:45:00;;;;;;;0.10;0.10;;;;;;;;;;5041117;28;20026;-76
2021/12/18 02:47:26;;;;;;;0.20;0.20;;;;;;;;;;5039832;28;20083;-76
2021/12/18 02:49:52;;;;;;;0.03;0.03;;;;;;;;;;5046043;28;20037;-76
2021/12/18 02:52:20;;;;;;;0.10;0.10;;;;;;;;;;5031829;28;20069;-76
2021/12/18 02:54:46;;;;;;;0.35;0.35;;;;;;;;;;5035276;28;20086;-76
2021/12/18 02:57:12;;;;;;;0.00;0.00;;;;;;;;;;5043209;28;20040;-76
2021/12/18 02:59:45;;;;;;;0.00;0.00;;;;;;;;;;5038038;28;20025;-76
2021/12/18 03:02:12;;;;;;;0.13;0.13;;;;;;;;;;5034123;28;20029;-75
2021/12/18 03:04:40;;;;;;;0.80;0.70;;;;;;;;;;5031856;28;20018;-76
2021/12/18 03:07:08;;;;;;;0.88;0.40;;;;;;;;;;5036884;28;20602;-76
2021/12/18 03:18:54;;;;;;;0.20;0.20;;;;;;;;;;5031914;28;20118;-76
2021/12/18 03:21:23;;;;;;;0.63;0.63;;;;;;;;;;5042976;28;20564;-75
2021/12/18 03:23:36;;;;;;;0.38;0.38;;;;;;;;;;5033432;28;20041;-75
2021/12/18 03:26:02;;;;;;;0.03;0.03;;;;;;;;;;5037976;28;20045;-75
2021/12/18 03:28:28;;;;;;;0.00;0.00;;;;;;;;;;5043591;28;20036;-76
2021/12/18 03:30:58;;;;;;;0.65;0.65;;;;;;;;;;5034362;28;20044;-76
2021/12/18 03:33:25;;;;;;;0.00;0.00;;;;;;;;;;5030234;28;20112;-75
2021/12/18 03:35:51;;;;;;;0.35;0.35;;;;;;;;;;5036541;28;20033;-76
2021/12/18 03:38:17;;;;;;;0.10;0.10;;;;;;;;;;5034762;28;20031;-76
2021/12/18 03:40:43;;;;;;;0.30;0.30;;;;;;;;;;5038880;28;20111;-76
2021/12/18 03:43:09;;;;;;;1.77;0.43;;;;;;;;;;5041452;28;20025;-75
2021/12/18 03:45:35;;;;;;;0.22;0.22;;;;;;;;;;5039005;28;20037;-76
2021/12/18 03:48:01;;;;;;;0.20;0.20;;;;;;;;;;5033548;28;20029;-76
2021/12/18 03:50:27;;;;;;;0.15;0.08;;;;;;;;;;5045639;28;20115;-76
2021/12/18 03:52:53;;;;;;;0.10;0.10;;;;;;;;;;5042799;28;20091;-76
2021/12/18 03:55:19;;;;;;;0.20;0.20;;;;;;;;;;5053529;28;20016;-76
2021/12/18 03:57:45;;;;;;;0.20;0.20;;;;;;;;;;5033295;28;20025;-76
2021/12/18 04:00:13;;;;;;;0.10;0.10;;;;;;;;;;5029358;28;20034;-75
2021/12/18 04:02:39;;;;;;;0.35;0.35;;;;;;;;;;5035898;28;20039;-76
2021/12/18 04:05:05;;;;;;;0.10;0.10;;;;;;;;;;5033557;28;20029;-75
2021/12/18 04:07:39;;;;;;;0.22;0.22;;;;;;;;;;5030215;28;20481;-76
2021/12/18 04:10:05;;;;;;;0.40;0.40;;;;;;;;;;5037994;28;20038;-76
2021/12/18 04:12:31;;;;;;;0.10;0.10;;;;;;;;;;5030119;28;20365;-76
2021/12/18 04:14:57;;;;;;;0.32;0.32;;;;;;;;;;5041182;28;20029;-76
2021/12/18 04:17:23;;;;;;;0.20;0.20;;;;;;;;;;5030391;28;20025;-76
2021/12/18 04:19:49;;;;;;;0.10;0.10;;;;;;;;;;5032813;28;20476;-76
2021/12/18 04:22:15;;;;;;;0.38;0.38;;;;;;;;;;5044597;28;20018;-75
2021/12/18 04:24:41;;;;;;;0.10;0.10;;;;;;;;;;5029028;28;20435;-76
2021/12/18 04:27:06;;;;;;;1.95;1.35;;;;;;;;;;5030968;28;20049;-76
2021/12/18 04:29:32;;;;;;;0.38;0.38;;;;;;;;;;5030221;28;20032;-76
2021/12/18 04:31:58;;;;;;;0.00;0.00;;;;;;;;;;5031076;28;20418;-76
2021/12/18 04:34:24;;;;;;;0.10;0.10;;;;;;;;;;5039281;28;20045;-76
2021/12/18 04:36:51;;;;;;;0.40;0.32;;;;;;;;;;5047589;28;20059;-76
2021/12/18 04:39:17;;;;;;;0.00;0.00;;;;;;;;;;5029919;28;20120;-76
2021/12/18 04:41:49;;;;;;;0.00;0.00;;;;;;;;;;5032277;28;20118;-76
2021/12/18 04:44:15;;;;;;;0.00;0.00;;;;;;;;;;5039499;28;20033;-76
2021/12/18 04:46:41;;;;;;;0.08;0.08;;;;;;;;;;5035337;28;20131;-76
2021/12/18 04:49:07;;;;;;;0.00;0.00;;;;;;;;;;5042026;28;20448;-76
2021/12/18 04:51:33;;;;;;;0.20;0.20;;;;;;;;;;5033175;28;20026;-76
2021/12/18 04:53:59;;;;;;;0.00;0.00;;;;;;;;;;5032938;28;20095;-76
2021/12/18 04:56:25;;;;;;;0.22;0.20;;;;;;;;;;5038946;28;20025;-76
2021/12/18 04:58:51;;;;;;;0.90;0.52;;;;;;;;;;5031939;28;20063;-76
2021/12/18 05:01:17;;;;;;;0.52;0.20;;;;;;;;;;5032309;28;20036;-76
2021/12/18 05:03:44;;;;;;;0.15;0.15;;;;;;;;;;5033283;28;20065;-76
2021/12/18 05:06:10;;;;;;;0.05;0.05;;;;;;;;;;5043095;28;20029;-76
2021/12/18 05:08:36;;;;;;;0.00;0.00;;;;;;;;;;5033407;28;20092;-75
2021/12/18 05:11:02;;;;;;;0.17;0.15;;;;;;;;;;5035918;28;20025;-76
2021/12/18 05:13:28;;;;;;;0.10;0.10;;;;;;;;;;5036352;28;20131;-76
2021/12/18 05:15:54;;;;;;;0.20;0.20;;;;;;;;;;5037576;28;20033;-75
2021/12/18 05:18:20;;;;;;;0.00;0.00;;;;;;;;;;5037612;28;20032;-76
2021/12/18 05:20:46;;;;;;;0.00;0.00;;;;;;;;;;5033707;28;20033;-76
2021/12/18 05:23:12;;;;;;;0.73;0.73;;;;;;;;;;5040861;28;20025;-76
2021/12/18 05:25:38;;;;;;;0.10;0.10;;;;;;;;;;5035663;28;20052;-76
2021/12/18 05:28:04;;;;;;;0.00;0.00;;;;;;;;;;5038233;28;20408;-75
2021/12/18 05:30:30;;;;;;;0.50;0.20;;;;;;;;;;5038176;28;20415;-76
2021/12/18 05:32:56;;;;;;;0.00;0.00;;;;;;;;;;5034961;28;20037;-76
2021/12/18 05:35:22;;;;;;;0.22;0.22;;;;;;;;;;5033719;28;20041;-76
2021/12/18 05:37:51;;;;;;;0.45;0.25;;;;;;;;;;5032854;28;20029;-76
2021/12/18 05:40:19;;;;;;;0.00;0.00;;;;;;;;;;5040086;28;20029;-76
2021/12/18 05:42:45;;;;;;;0.00;0.00;;;;;;;;;;5038983;28;20033;-76
2021/12/18 05:45:11;;;;;;;0.10;0.10;;;;;;;;;;5037842;28;20025;-76
2021/12/18 05:47:37;;;;;;;0.17;0.17;;;;;;;;;;5034982;28;20159;-76
2021/12/18 05:50:04;;;;;;;0.03;0.03;;;;;;;;;;5039333;28;20024;-76
2021/12/18 05:52:30;;;;;;;0.10;0.10;;;;;;;;;;5031735;28;20033;-76
2021/12/18 05:54:56;;;;;;;0.10;0.10;;;;;;;;;;5040945;28;20031;-76
2021/12/18 05:57:23;;;;;;;0.20;0.20;;;;;;;;;;5034585;28;20812;-76
2021/12/18 05:59:48;;;;;;;0.40;0.40;;;;;;;;;;5037016;28;20053;-76
2021/12/18 06:02:14;;;;;;;0.10;0.10;;;;;;;;;;5033578;28;20060;-76
2021/12/18 06:04:42;;;;;;;0.25;0.25;;;;;;;;;;5040294;28;20022;-76
2021/12/18 06:07:15;;;;;;;0.10;0.10;;;;;;;;;;5038313;28;20499;-77
2021/12/18 06:09:41;;;;;;;0.00;0.00;;;;;;;;;;5041637;28;20492;-76
2021/12/18 06:12:07;;;;;;;0.55;0.55;;;;;;;;;;5037739;28;20028;-76
2021/12/18 06:14:33;;;;;;;0.10;0.10;;;;;;;;;;5042227;28;20033;-76
2021/12/18 06:16:59;;;;;;;0.08;0.08;;;;;;;;;;5032719;28;20471;-76
2021/12/18 06:19:25;;;;;;;0.05;0.05;;;;;;;;;;5038455;28;20056;-76
2021/12/18 06:21:51;;;;;;;0.10;0.10;;;;;;;;;;5044322;28;20021;-76
2021/12/18 06:24:17;;;;;;;1.58;0.57;;;;;;;;;;5035916;28;20041;-77
2021/12/18 06:26:44;;;;;;;0.00;0.00;;;;;;;;;;5032239;28;20099;-76
2021/12/18 06:29:10;;;;;;;0.03;0.03;;;;;;;;;;5043180;28;20067;-75
2021/12/18 06:31:37;;;;;;;0.10;0.10;;;;;;;;;;5036439;28;20433;-76
2021/12/18 06:34:03;;;;;;;0.13;0.13;;;;;;;;;;5034353;28;20022;-76
2021/12/18 06:36:29;;;;;;;0.10;0.10;;;;;;;;;;5032216;28;20498;-75
2021/12/18 06:38:55;;;;;;;0.10;0.10;;;;;;;;;;5039434;28;20055;-76
2021/12/18 06:41:21;;;;;;;0.10;0.10;;;;;;;;;;5037202;28;20028;-76
2021/12/18 06:43:47;;;;;;;0.65;0.43;;;;;;;;;;5032350;28;20377;-76
2021/12/18 06:46:13;;;;;;;0.00;0.00;;;;;;;;;;5034540;28;20156;-76
2021/12/18 06:48:39;;;;;;;0.40;0.40;;;;;;;;;;5036952;28;20117;-76
2021/12/18 06:51:05;;;;;;;0.15;0.15;;;;;;;;;;5035829;28;20021;-76
2021/12/18 06:53:31;;;;;;;0.08;0.05;;;;;;;;;;5045618;28;20025;-76
2021/12/18 06:55:57;;;;;;;0.35;0.35;;;;;;;;;;5032163;28;20032;-75
2021/12/18 06:58:23;;;;;;;0.10;0.10;;;;;;;;;;5037387;28;20068;-77
2021/12/18 07:00:49;;;;;;;0.10;0.10;;;;;;;;;;5031041;28;20413;-76
2021/12/18 07:03:15;;;;;;;0.30;0.30;;;;;;;;;;5037713;28;20024;-76
2021/12/18 07:05:41;;;;;;;0.20;0.20;;;;;;;;;;5035680;28;20029;-76
2021/12/18 07:08:07;;;;;;;0.00;0.00;;;;;;;;;;5038613;28;20031;-76
2021/12/18 07:10:33;;;;;;;0.28;0.20;;;;;;;;;;5029103;28;20595;-76
2021/12/18 07:12:59;;;;;;;0.10;0.10;;;;;;;;;;5034069;28;20110;-76
2021/12/18 07:15:25;;;;;;;0.00;0.00;;;;;;;;;;5031846;28;20392;-76
2021/12/18 07:17:51;;;;;;;0.15;0.15;;;;;;;;;;5034507;28;20026;-76
2021/12/18 07:20:17;;;;;;;0.10;0.10;;;;;;;;;;5041258;28;20074;-76
2021/12/18 07:22:43;;;;;;;0.00;0.00;;;;;;;;;;5039458;28;20033;-76
2021/12/18 07:25:09;;;;;;;0.00;0.00;;;;;;;;;;5032880;28;20045;-76
2021/12/18 07:27:35;;;;;;;0.00;0.00;;;;;;;;;;5031060;28;20775;-77
2021/12/18 07:30:01;;;;;;;0.00;0.00;;;;;;;;;;5035015;28;20121;-76
2021/12/18 07:32:27;;;;;;;0.10;0.10;;;;;;;;;;5032150;28;20025;-76
2021/12/18 07:34:54;;;;;;;0.85;0.20;;;;;;;;;;5030548;28;20409;-76
2021/12/18 07:37:20;;;;;;;0.05;0.05;;;;;;;;;;5032272;28;20105;-76
2021/12/18 07:39:46;;;;;;;0.00;0.00;;;;;;;;;;5040800;28;20052;-76
2021/12/18 07:42:12;;;;;;;0.00;0.00;;;;;;;;;;5034883;28;20357;-76
2021/12/18 07:44:40;;;;;;;0.00;0.00;;;;;;;;;;5038863;28;20029;-76
2021/12/18 07:47:06;;;;;;;0.00;0.00;;;;;;;;;;5032760;28;20017;-77
2021/12/18 07:49:32;;;;;;;0.00;0.00;;;;;;;;;;5036214;28;20040;-76
2021/12/18 07:52:02;;;;;;;0.45;0.45;;;;;;;;;;5031429;28;20465;-76
2021/12/18 07:54:28;;;;;;;0.00;0.00;;;;;;;;;;5036776;28;20108;-76
2021/12/18 07:56:54;;;;;;;0.00;0.00;;;;;;;;;;5036260;28;20109;-76
2021/12/18 07:59:20;;;;;;;0.10;0.10;;;;;;;;;;5038258;28;20036;-76
2021/12/18 08:01:46;;;;;;;0.00;0.00;;;;;;;;;;5033073;28;20052;-77
2021/12/18 08:04:11;;;;;;;0.43;0.43;;;;;;;;;;5027850;28;20060;-76
2021/12/18 08:06:41;;;;;;;0.28;0.28;;;;;;;;;;5031639;28;20065;-76
2021/12/18 08:09:06;;;;;;;0.03;0.03;;;;;;;;;;5029393;28;20018;-76
2021/12/18 08:11:32;;;;;;;0.00;0.00;;;;;;;;;;5032719;28;20712;-76
2021/12/18 08:13:58;;;;;;;0.00;0.00;;;;;;;;;;5033227;28;20025;-76
2021/12/18 08:16:24;;;;;;;0.10;0.10;;;;;;;;;;5033275;28;20450;-76
2021/12/18 08:18:50;;;;;;;0.00;0.00;;;;;;;;;;5030659;28;20041;-76
2021/12/18 08:21:16;;;;;;;0.00;0.00;;;;;;;;;;5033720;28;20032;-76
2021/12/18 08:23:42;;;;;;;0.00;0.00;;;;;;;;;;5040148;28;20602;-76
2021/12/18 08:26:08;;;;;;;0.15;0.10;;;;;;;;;;5035227;28;20042;-76
2021/12/18 08:28:34;;;;;;;0.00;0.00;;;;;;;;;;5038333;28;20029;-76
2021/12/18 08:31:00;;;;;;;0.10;0.10;;;;;;;;;;5034183;28;20104;-77
2021/12/18 08:33:26;;;;;;;0.00;0.00;;;;;;;;;;5043884;28;20029;-76
2021/12/18 08:35:52;;;;;;;0.00;0.00;;;;;;;;;;5046566;28;20036;-77
2021/12/18 08:38:18;;;;;;;0.00;0.00;;;;;;;;;;5048003;28;20029;-77
2021/12/18 08:40:45;;;;;;;0.03;0.03;;;;;;;;;;5038648;28;20087;-76
2021/12/18 08:43:11;;;;;;;0.00;0.00;;;;;;;;;;5044801;28;20379;-76
2021/12/18 08:45:37;;;;;;;0.00;0.00;;;;;;;;;;5039542;28;20098;-76
2021/12/18 08:48:03;;;;;;;0.10;0.10;;;;;;;;;;5033797;28;20033;-76
2021/12/18 08:50:29;;;;;;;0.05;0.05;;;;;;;;;;5042501;28;20032;-76
2021/12/18 08:52:55;;;;;;;0.00;0.00;;;;;;;;;;5045051;28;20031;-76
2021/12/18 08:55:22;;;;;;;0.10;0.10;;;;;;;;;;5034913;28;20026;-76
2021/12/18 08:57:48;;;;;;;0.00;0.00;;;;;;;;;;5035136;28;20044;-76
2021/12/18 09:00:16;;;;;;;0.00;0.00;;;;;;;;;;5033672;28;20472;-76
2021/12/18 09:02:43;;;;;;;0.20;0.20;;;;;;;;;;5034957;28;20047;-76
2021/12/18 09:05:09;;;;;;;0.10;0.10;;;;;;;;;;5031506;28;20028;-76
2021/12/18 09:07:36;;;;;;;0.10;0.10;;;;;;;;;;5035462;28;20025;-76
2021/12/18 09:10:03;;;;;;;0.00;0.00;;;;;;;;;;5034271;28;20039;-76
2021/12/18 09:12:29;;;;;;;0.10;0.10;;;;;;;;;;5032137;28;20490;-76
2021/12/18 09:14:54;;;;;;;0.30;0.30;;;;;;;;;;5038799;28;20109;-76
2021/12/18 09:17:20;;;;;;;0.00;0.00;;;;;;;;;;5035173;28;20030;-77
2021/12/18 09:19:46;;;;;;;0.00;0.00;;;;;;;;;;5038016;28;20028;-76
2021/12/18 09:22:13;;;;;;;0.17;0.17;;;;;;;;;;5040756;28;20030;-75
2021/12/18 09:24:39;;;;;;;0.25;0.25;;;;;;;;;;5035442;28;20449;-74
2021/12/18 09:27:06;;;;;;;0.00;0.00;;;;;;;;;;5046209;28;20548;-73
2021/12/18 09:29:32;;;;;;;1.20;0.20;;;;;;;;;;5036673;28;20070;-76
2021/12/18 09:31:58;;;;;;;0.08;0.08;;;;;;;;;;5045603;28;20118;-75
2021/12/18 09:34:26;;;;;;;0.20;0.20;;;;;;;;;;5038730;28;20064;-75
2021/12/18 09:36:52;;;;;;;0.40;0.40;;;;;;;;;;5050863;28;20155;-76
2021/12/18 09:39:18;;;;;;;3.15;0.45;;;;;;;;;;5046857;28;20108;-75
2021/12/18 09:41:47;;;;;;;0.00;0.00;;;;;;;;;;5035656;28;20134;-75
2021/12/18 09:44:13;;;;;;;0.10;0.10;;;;;;;;;;5034221;28;20022;-76
2021/12/18 09:46:39;;;;;;;0.47;0.45;;;;;;;;;;5035866;28;20034;-75
2021/12/18 09:49:05;;;;;;;0.10;0.10;;;;;;;;;;5034182;28;20025;-81
2021/12/18 09:51:31;;;;;;;0.10;0.10;;;;;;;;;;5036163;28;20473;-88
2021/12/18 09:53:58;;;;;;;0.47;0.45;;;;;;;;;;5034352;28;20025;-74
2021/12/18 09:56:24;;;;;;;0.20;0.20;;;;;;;;;;5042802;28;20025;-77
2021/12/18 09:58:51;;;;;;;0.10;0.10;;;;;;;;;;5043680;28;20037;-75
2021/12/18 10:01:17;;;;;;;0.10;0.10;;;;;;;;;;5044390;28;20036;-76
2021/12/18 10:03:44;;;;;;;0.30;0.30;;;;;;;;;;5035128;28;20037;-75
2021/12/18 10:06:36;;;;;;;0.38;0.38;;;;;;;;;;5033144;28;20020;-76
2021/12/18 10:09:25;;;;;;;0.10;0.10;;;;;;;;;;5032902;28;20091;-76
2021/12/18 10:11:53;;;;;;;0.10;0.10;;;;;;;;;;5034124;28;20029;-76
2021/12/18 10:14:20;;;;;;;0.05;0.05;;;;;;;;;;5033165;28;20387;-75
2021/12/18 10:16:47;;;;;;;0.03;0.03;;;;;;;;;;5039114;28;20112;-76
2021/12/18 10:19:25;;;;;;;0.00;0.00;;;;;;;;;;5041352;28;20048;-75
2021/12/18 10:21:58;;;;;;;0.25;0.25;;;;;;;;;;5036297;28;20033;-76
2021/12/18 10:24:25;;;;;;;0.10;0.10;;;;;;;;;;5029437;28;20034;-74
2021/12/18 10:26:51;;;;;;;0.05;0.05;;;;;;;;;;5047687;28;20040;-75
2021/12/18 10:29:28;;;;;;;0.00;0.00;;;;;;;;;;5032370;28;20511;-76
2021/12/18 10:31:54;;;;;;;0.10;0.10;;;;;;;;;;5035385;28;20052;-76
2021/12/18 10:34:24;;;;;;;0.00;0.00;;;;;;;;;;5031081;28;20514;-77
2021/12/18 10:37:08;;;;;;;0.13;0.13;;;;;;;;;;5037178;28;20424;-76
2021/12/18 10:39:35;;;;;;;0.00;0.00;;;;;;;;;;5039264;28;20049;-77
2021/12/18 10:42:14;;;;;;;0.00;0.00;;;;;;;;;;5036793;28;20026;-76
2021/12/18 10:44:54;;;;;;;0.55;0.43;;;;;;;;;;5030451;28;20520;-76
2021/12/18 10:47:20;;;;;;;0.05;0.05;;;;;;;;;;5043344;28;20017;-76
2021/12/18 10:49:46;;;;;;;0.00;0.00;;;;;;;;;;5038853;28;20116;-76
2021/12/18 10:52:12;;;;;;;0.10;0.10;;;;;;;;;;5034118;28;20021;-75
2021/12/18 10:54:38;;;;;;;0.75;0.60;;;;;;;;;;5034583;28;20373;-74
2021/12/18 10:57:04;;;;;;;0.10;0.10;;;;;;;;;;5031231;28;20017;-76
2021/12/18 10:59:36;;;;;;;0.20;0.20;;;;;;;;;;5034780;28;20022;-81
2021/12/18 11:02:03;;;;;;;0.38;0.38;;;;;;;;;;5031011;28;20641;-77
2021/12/18 11:04:30;;;;;;;0.00;0.00;;;;;;;;;;5030086;28;20029;-80
2021/12/18 11:06:57;;;;;;;0.13;0.13;;;;;;;;;;5030358;28;20099;-75
2021/12/18 11:09:32;;;;;;;0.00;0.00;;;;;;;;;;5035051;28;20029;-76
2021/12/18 11:14:31;;;;;;;0.00;0.00;;;;;;;;;;5034645;28;20028;-75
2021/12/18 11:16:59;;;;;;;0.43;0.43;;;;;;;;;;5035038;28;20089;-76
2021/12/18 11:19:26;;;;;;;0.15;0.15;;;;;;;;;;5030984;28;20060;-73
2021/12/18 11:21:56;;;;;;;0.00;0.00;;;;;;;;;;5028615;28;20034;-73
2021/12/18 11:24:26;;;;;;;0.85;0.57;;;;;;;;;;5028204;28;20029;-75
2021/12/18 11:26:57;;;;;;;0.38;0.38;;;;;;;;;;5022557;28;20049;-76
2021/12/18 11:29:26;;;;;;;0.10;0.10;;;;;;;;;;5034317;28;20025;-76
2021/12/18 11:31:52;;;;;;;0.00;0.00;;;;;;;;;;5032343;28;20029;-76
2021/12/18 11:34:18;;;;;;;0.10;0.10;;;;;;;;;;5031736;28;20067;-77
2021/12/18 11:36:46;;;;;;;0.00;0.00;;;;;;;;;;5037901;28;20508;-77
2021/12/18 11:39:13;;;;;;;0.17;0.10;;;;;;;;;;5029276;28;20039;-76
2021/12/18 11:41:40;;;;;;;0.30;0.30;;;;;;;;;;5040604;28;20124;-76
2021/12/18 11:44:23;;;;;;;0.00;0.00;;;;;;;;;;5037130;28;20030;-76
2021/12/18 11:46:49;;;;;;;0.08;0.08;;;;;;;;;;5034291;28;20025;-73
2021/12/18 11:49:15;;;;;;;0.30;0.30;;;;;;;;;;5033944;28;20498;-73
2021/12/18 11:51:56;;;;;;;0.00;0.00;;;;;;;;;;5034681;28;20360;-74
2021/12/18 11:54:40;;;;;;;0.10;0.10;;;;;;;;;;5030288;28;20032;-73
2021/12/18 11:57:06;;;;;;;0.38;0.38;;;;;;;;;;5039268;28;20035;-73
2021/12/18 11:59:39;;;;;;;0.10;0.10;;;;;;;;;;5034457;28;20053;-72
2021/12/18 12:02:05;;;;;;;0.10;0.10;;;;;;;;;;5034313;28;20487;-73
2021/12/18 12:04:50;;;;;;;0.00;0.00;;;;;;;;;;5040479;28;20108;-72
2021/12/18 12:07:21;;;;;;;0.00;0.00;;;;;;;;;;5027058;28;20042;-72
2021/12/18 12:10:06;;;;;;;0.32;0.20;;;;;;;;;;5037539;28;20033;-72
2021/12/18 12:13:08;;;;;;;0.00;0.00;;;;;;;;;;5034528;28;20037;-74
2021/12/18 12:15:33;;;;;;;0.00;0.00;;;;;;;;;;5006435;28;20034;-72
2021/12/18 12:18:07;;;;;;;0.10;0.10;;;;;;;;;;5035095;28;20113;-72
2021/12/18 12:20:39;;;;;;;0.10;0.10;;;;;;;;;;5031185;28;20040;-72
2021/12/18 12:23:05;;;;;;;0.00;0.00;;;;;;;;;;5039010;28;20022;-73
2021/12/18 12:25:38;;;;;;;0.00;0.00;;;;;;;;;;5038047;28;20037;-73
2021/12/18 12:28:12;;;;;;;0.00;0.00;;;;;;;;;;5041529;28;20022;-73
2021/12/18 12:30:43;;;;;;;0.00;0.00;;;;;;;;;;5034328;28;20036;-73
2021/12/18 12:33:10;;;;;;;0.38;0.38;;;;;;;;;;5036594;28;20025;-73
2021/12/18 12:35:56;;;;;;;0.22;0.22;;;;;;;;;;5028352;28;20033;-73
2021/12/18 12:38:24;;;;;;;0.10;0.10;;;;;;;;;;5033230;28;20063;-72
2021/12/18 12:40:50;;;;;;;0.00;0.00;;;;;;;;;;5047418;28;20040;-72
2021/12/18 12:43:25;;;;;;;0.00;0.00;;;;;;;;;;5040482;28;21639;-72
2021/12/18 12:45:53;;;;;;;0.10;0.10;;;;;;;;;;5045682;28;20033;-72
2021/12/18 12:48:19;;;;;;;0.20;0.20;;;;;;;;;;5036423;28;20028;-72
2021/12/18 12:51:15;;;;;;;1.00;0.68;;;;;;;;;;5042354;28;20037;-72
2021/12/18 12:53:54;;;;;;;0.15;0.08;;;;;;;;;;5028565;28;20495;-73
2021/12/18 12:56:21;;;;;;;0.47;0.25;;;;;;;;;;5033181;28;20498;-73
2021/12/18 12:58:48;;;;;;;0.00;0.00;;;;;;;;;;5035993;28;20025;-73
2021/12/18 13:01:14;;;;;;;0.00;0.00;;;;;;;;;;5033220;28;20452;-73
2021/12/18 13:03:47;;;;;;;0.00;0.00;;;;;;;;;;5039272;28;20025;-73
2021/12/18 13:06:16;;;;;;;0.00;0.00;;;;;;;;;;5037845;28;20089;-73
2021/12/18 13:08:43;;;;;;;0.77;0.28;;;;;;;;;;5043835;28;20035;-72
2021/12/18 13:11:12;;;;;;;0.20;0.20;;;;;;;;;;5043722;28;20033;-73
2021/12/18 13:13:38;;;;;;;0.00;0.00;;;;;;;;;;5039543;28;20091;-73
2021/12/18 13:16:11;;;;;;;0.28;0.28;;;;;;;;;;5040910;28;20709;-72
2021/12/18 13:18:40;;;;;;;0.08;0.08;;;;;;;;;;5033601;28;20511;-72
2021/12/18 13:21:14;;;;;;;0.00;0.00;;;;;;;;;;5042979;28;20056;-73
2021/12/18 13:23:46;;;;;;;0.00;0.00;;;;;;;;;;5036649;28;20033;-72
2021/12/18 13:26:17;;;;;;;0.00;0.00;;;;;;;;;;5038467;28;20045;-72
2021/12/18 13:28:47;;;;;;;0.00;0.00;;;;;;;;;;5038911;28;20029;-72
2021/12/18 13:31:13;;;;;;;0.55;0.55;;;;;;;;;;5046879;28;20044;-73
2021/12/18 13:33:38;;;;;;;0.00;0.00;;;;;;;;;;5036366;28;20029;-72
2021/12/18 13:36:05;;;;;;;0.00;0.00;;;;;;;;;;5034574;28;20033;-73
2021/12/18 13:38:38;;;;;;;0.10;0.10;;;;;;;;;;5047541;28;20029;-72
2021/12/18 13:41:08;;;;;;;0.00;0.00;;;;;;;;;;5043113;28;20507;-72
2021/12/18 13:43:33;;;;;;;0.00;0.00;;;;;;;;;;5030702;28;20029;-72
2021/12/18 13:46:05;;;;;;;0.08;0.08;;;;;;;;;;5034947;28;20021;-72
2021/12/18 13:48:34;;;;;;;;;;;;;;;;;;5049367;28;20021;-72
2021/12/18 13:51:08;;;;;;;0.00;0.00;;;;;;;;;;5037609;28;20002;-73
2021/12/18 13:53:35;;;;;;;0.10;0.10;;;;;;;;;;5032632;28;20055;-72
2021/12/18 13:56:05;;;;;;;0.05;0.05;;;;;;;;;;5040909;28;20040;-72
2021/12/18 13:58:35;;;;;;;0.05;0.05;;;;;;;;;;5031353;28;20268;-72
2021/12/18 14:01:08;;;;;;;0.00;0.00;;;;;;;;;;5050076;28;20021;-72
2021/12/18 14:03:50;;;;;;;1.08;0.32;;;;;;;;;;5044149;28;20029;-72
2021/12/18 14:06:37;;;;;;;0.00;0.00;;;;;;;;;;5045402;28;20322;-72
2021/12/18 14:09:16;;;;;;;0.00;0.00;;;;;;;;;;5042786;28;20079;-72
2021/12/18 14:11:50;;;;;;;0.00;0.00;;;;;;;;;;5038168;28;20028;-72
2021/12/18 14:14:16;;;;;;;0.00;0.00;;;;;;;;;;5040401;28;20219;-72
2021/12/18 14:16:53;;;;;;;0.00;0.00;;;;;;;;;;5038501;28;20033;-72
2021/12/18 14:19:29;;;;;;;0.00;0.00;;;;;;;;;;5037642;28;20047;-72
2021/12/18 14:21:56;;;;;;;0.40;0.40;;;;;;;;;;5041553;28;20029;-72
2021/12/18 14:24:22;;;;;;;0.10;0.10;;;;;;;;;;5039208;28;20030;-72
2021/12/18 14:27:00;;;;;;;0.55;0.20;;;;;;;;;;5032094;28;20664;-72
2021/12/18 14:29:27;;;;;;;0.10;0.10;;;;;;;;;;5033096;28;20021;-72
2021/12/18 14:31:55;;;;;;;0.00;0.00;;;;;;;;;;5042340;28;20090;-72
2021/12/18 14:34:24;;;;;;;0.00;0.00;;;;;;;;;;5030050;28;20029;-72
2021/12/18 14:37:10;;;;;;;0.10;0.10;;;;;;;;;;5031386;28;20033;-72
2021/12/18 14:39:47;;;;;;;0.35;0.35;;;;;;;;;;5044780;28;20022;-71
2021/12/18 14:42:48;;;;;;;0.00;0.00;;;;;;;;;;5043218;28;20036;-72
2021/12/18 14:45:21;;;;;;;0.32;0.32;;;;;;;;;;5041370;28;20048;-72
2021/12/18 14:47:48;;;;;;;0.10;0.10;;;;;;;;;;5034157;28;20175;-71
2021/12/18 14:50:27;;;;;;;0.30;0.30;;;;;;;;;;5032117;28;20045;-71
2021/12/18 14:53:04;;;;;;;0.10;0.10;;;;;;;;;;5047230;28;20155;-71
2021/12/18 14:55:47;;;;;;;0.40;0.40;;;;;;;;;;5035125;28;20033;-71
2021/12/18 14:58:18;;;;;;;0.00;0.00;;;;;;;;;;5032397;28;20029;-72
2021/12/18 15:00:46;;;;;;;0.00;0.00;;;;;;;;;;5038122;28;20445;-72
2021/12/18 15:03:17;;;;;;;1.42;0.95;;;;;;;;;;5035786;28;20430;-73
2021/12/18 15:05:54;;;;;;;0.10;0.10;;;;;;;;;;5029387;28;20047;-72
2021/12/18 15:08:23;;;;;;;0.08;0.08;;;;;;;;;;5035317;28;20504;-72
2021/12/18 15:10:50;;;;;;;0.08;0.08;;;;;;;;;;5030635;28;20026;-72
2021/12/18 15:13:17;;;;;;;0.10;0.10;;;;;;;;;;5033451;28;20029;-72
2021/12/18 15:15:43;;;;;;;0.40;0.30;;;;;;;;;;5029462;28;20038;-72
2021/12/18 15:18:09;;;;;;;0.00;0.00;;;;;;;;;;5037574;28;20033;-72
2021/12/18 15:20:35;;;;;;;0.10;0.10;;;;;;;;;;5032055;28;20037;-73
2021/12/18 15:23:01;;;;;;;0.20;0.20;;;;;;;;;;5046465;28;20194;-73
2021/12/18 15:25:27;;;;;;;0.20;0.10;;;;;;;;;;5034887;28;20045;-72
2021/12/18 15:27:53;;;;;;;1.38;0.68;;;;;;;;;;5028645;28;20041;-72